sensor_id;sensor_type;location;lat;lon;timestamp;temperature;humidity
22966;DHT22;11649;48.090;9.754;2023-05-23T00:00:04;14.80;99.90
22966;DHT22;11649;48.090;9.754;2023-05-23T00:02:32;14.70;99.90
22966;DHT22;11649;48.090;9.754;2023-05-23T00:05:00;15.20;99.90
22966;DHT22;11649;48.090;9.754;2023-05-23T00:07:29;14.50;99.90
22966;DHT22;11649;48.090;9.754;2023-05-23T00:09:57;15.10;99.90
22966;DHT22;11649;48.090;9.754;2023-05-23T00:12:24;14.80;99.90
22966;DHT22;11649;48.090;9.754;2023-05-23T00:14:52;15.10;99.90
22966;DHT22;11649;48.090;9.754;2023-05-23T00:17:19;15.10;99.90
22966;DHT22;11649;48.090;9.754;2023-05-23T00:19:47;14.20;99.90
22966;DHT22;11649;48.090;9.754;2023-05-23T00:22:14;14.50;99.90
22966;DHT22;11649;48.090;9.754;2023-05-23T00:24:43;14.20;99.90
22966;DHT22;11649;48.090;9.754;2023-05-23T00:27:10;14.30;99.90
22966;DHT22;11649;48.090;9.754;2023-05-23T00:29:36;15.20;99.90
22966;DHT22;11649;48.090;9.754;2023-05-23T00:32:03;14.10;99.90
22966;DHT22;11649;48.090;9.754;2023-05-23T00:34:30;14.00;99.90
22966;DHT22;11649;48.090;9.754;2023-05-23T00:36:57;14.00;99.90
22966;DHT22;11649;48.090;9.754;2023-05-23T00:39:25;13.80;99.90
22966;DHT22;11649;48.090;9.754;2023-05-23T00:41:52;13.80;99.90
22966;DHT22;11649;48.090;9.754;2023-05-23T00:44:19;14.00;99.90
22966;DHT22;11649;48.090;9.754;2023-05-23T00:46:50;13.80;99.90
22966;DHT22;11649;48.090;9.754;2023-05-23T00:49:18;13.80;99.90
22966;DHT22;11649;48.090;9.754;2023-05-23T00:52:24;14.00;99.90
22966;DHT22;11649;48.090;9.754;2023-05-23T00:54:51;14.00;99.90
22966;DHT22;11649;48.090;9.754;2023-05-23T00:57:17;13.90;99.90
22966;DHT22;11649;48.090;9.754;2023-05-23T00:59:44;13.90;99.90
22966;DHT22;11649;48.090;9.754;2023-05-23T01:02:12;14.10;99.90
22966;DHT22;11649;48.090;9.754;2023-05-23T01:04:39;13.90;99.90
22966;DHT22;11649;48.090;9.754;2023-05-23T01:07:07;13.90;99.90
22966;DHT22;11649;48.090;9.754;2023-05-23T01:09:35;14.40;99.90
22966;DHT22;11649;48.090;9.754;2023-05-23T01:12:31;14.30;99.90
22966;DHT22;11649;48.090;9.754;2023-05-23T01:15:06;15.40;99.90
22966;DHT22;11649;48.090;9.754;2023-05-23T01:20:30;13.90;99.90
22966;DHT22;11649;48.090;9.754;2023-05-23T01:28:36;13.80;99.90
22966;DHT22;11649;48.090;9.754;2023-05-23T01:31:07;13.80;99.90
22966;DHT22;11649;48.090;9.754;2023-05-23T01:33:37;13.80;99.90
22966;DHT22;11649;48.090;9.754;2023-05-23T01:36:06;13.90;99.90
22966;DHT22;11649;48.090;9.754;2023-05-23T01:38:33;13.90;99.90
22966;DHT22;11649;48.090;9.754;2023-05-23T01:41:00;13.80;99.90
22966;DHT22;11649;48.090;9.754;2023-05-23T01:43:27;13.80;99.90
22966;DHT22;11649;48.090;9.754;2023-05-23T01:45:54;13.70;99.90
22966;DHT22;11649;48.090;9.754;2023-05-23T01:48:23;14.10;99.90
22966;DHT22;11649;48.090;9.754;2023-05-23T01:50:52;13.80;99.90
22966;DHT22;11649;48.090;9.754;2023-05-23T01:53:21;13.90;99.90
22966;DHT22;11649;48.090;9.754;2023-05-23T01:55:48;13.90;99.90
22966;DHT22;11649;48.090;9.754;2023-05-23T01:58:16;14.00;99.90
22966;DHT22;11649;48.090;9.754;2023-05-23T02:00:43;13.80;99.90
22966;DHT22;11649;48.090;9.754;2023-05-23T02:03:10;14.70;99.90
22966;DHT22;11649;48.090;9.754;2023-05-23T02:05:46;13.90;99.90
22966;DHT22;11649;48.090;9.754;2023-05-23T02:08:13;15.20;99.90
22966;DHT22;11649;48.090;9.754;2023-05-23T02:10:40;13.70;99.90
22966;DHT22;11649;48.090;9.754;2023-05-23T02:13:07;13.60;99.90
22966;DHT22;11649;48.090;9.754;2023-05-23T02:15:34;13.80;99.90
22966;DHT22;11649;48.090;9.754;2023-05-23T02:18:01;13.50;99.90
22966;DHT22;11649;48.090;9.754;2023-05-23T02:20:29;13.50;99.90
22966;DHT22;11649;48.090;9.754;2023-05-23T02:22:56;13.40;99.90
22966;DHT22;11649;48.090;9.754;2023-05-23T02:25:22;13.80;99.90
22966;DHT22;11649;48.090;9.754;2023-05-23T02:27:49;14.90;99.90
22966;DHT22;11649;48.090;9.754;2023-05-23T02:30:16;14.90;99.90
22966;DHT22;11649;48.090;9.754;2023-05-23T02:32:43;13.50;99.90
22966;DHT22;11649;48.090;9.754;2023-05-23T02:35:11;13.60;99.90
22966;DHT22;11649;48.090;9.754;2023-05-23T02:37:38;14.00;99.90
22966;DHT22;11649;48.090;9.754;2023-05-23T02:40:05;13.90;99.90
22966;DHT22;11649;48.090;9.754;2023-05-23T02:42:33;13.60;99.90
22966;DHT22;11649;48.090;9.754;2023-05-23T02:45:00;14.90;99.90
22966;DHT22;11649;48.090;9.754;2023-05-23T02:47:27;14.80;99.90
22966;DHT22;11649;48.090;9.754;2023-05-23T02:49:54;14.90;99.90
22966;DHT22;11649;48.090;9.754;2023-05-23T02:52:21;13.30;99.90
22966;DHT22;11649;48.090;9.754;2023-05-23T02:54:49;13.20;99.90
22966;DHT22;11649;48.090;9.754;2023-05-23T02:57:16;14.10;99.90
22966;DHT22;11649;48.090;9.754;2023-05-23T02:59:43;13.10;99.90
22966;DHT22;11649;48.090;9.754;2023-05-23T03:02:10;13.10;99.90
22966;DHT22;11649;48.090;9.754;2023-05-23T03:04:37;13.10;99.90
22966;DHT22;11649;48.090;9.754;2023-05-23T03:07:04;13.10;99.90
22966;DHT22;11649;48.090;9.754;2023-05-23T03:09:42;13.00;99.90
22966;DHT22;11649;48.090;9.754;2023-05-23T03:12:09;13.00;99.90
22966;DHT22;11649;48.090;9.754;2023-05-23T03:14:36;13.00;99.90
22966;DHT22;11649;48.090;9.754;2023-05-23T03:17:04;12.90;99.90
22966;DHT22;11649;48.090;9.754;2023-05-23T03:19:31;12.90;99.90
22966;DHT22;11649;48.090;9.754;2023-05-23T03:22:02;14.00;99.90
22966;DHT22;11649;48.090;9.754;2023-05-23T03:24:29;12.90;99.90
22966;DHT22;11649;48.090;9.754;2023-05-23T03:26:57;12.90;99.90
22966;DHT22;11649;48.090;9.754;2023-05-23T03:29:24;12.90;99.90
22966;DHT22;11649;48.090;9.754;2023-05-23T03:31:51;12.90;99.90
22966;DHT22;11649;48.090;9.754;2023-05-23T03:34:18;12.90;99.90
22966;DHT22;11649;48.090;9.754;2023-05-23T03:36:45;12.90;99.90
22966;DHT22;11649;48.090;9.754;2023-05-23T03:39:12;13.00;99.90
22966;DHT22;11649;48.090;9.754;2023-05-23T03:41:39;13.00;99.90
22966;DHT22;11649;48.090;9.754;2023-05-23T03:44:07;13.00;99.90
22966;DHT22;11649;48.090;9.754;2023-05-23T03:46:37;13.90;99.90
22966;DHT22;11649;48.090;9.754;2023-05-23T03:49:32;11.90;99.90
22966;DHT22;11649;48.090;9.754;2023-05-23T03:52:14;13.00;99.90
22966;DHT22;11649;48.090;9.754;2023-05-23T03:54:46;12.90;99.90
22966;DHT22;11649;48.090;9.754;2023-05-23T03:57:14;12.90;99.90
22966;DHT22;11649;48.090;9.754;2023-05-23T03:59:41;14.40;99.90
22966;DHT22;11649;48.090;9.754;2023-05-23T04:02:08;15.20;99.90
22966;DHT22;11649;48.090;9.754;2023-05-23T04:04:35;12.90;99.90
22966;DHT22;11649;48.090;9.754;2023-05-23T04:07:02;14.80;99.90
22966;DHT22;11649;48.090;9.754;2023-05-23T04:09:31;12.90;99.90
22966;DHT22;11649;48.090;9.754;2023-05-23T04:11:58;14.20;99.90
22966;DHT22;11649;48.090;9.754;2023-05-23T04:14:25;13.00;99.90
22966;DHT22;11649;48.090;9.754;2023-05-23T04:16:52;13.00;99.90
22966;DHT22;11649;48.090;9.754;2023-05-23T04:19:19;14.90;99.90
22966;DHT22;11649;48.090;9.754;2023-05-23T04:21:46;13.90;99.90
22966;DHT22;11649;48.090;9.754;2023-05-23T04:24:13;12.60;99.90
22966;DHT22;11649;48.090;9.754;2023-05-23T04:26:40;13.00;99.90
22966;DHT22;11649;48.090;9.754;2023-05-23T04:29:08;14.40;99.90
22966;DHT22;11649;48.090;9.754;2023-05-23T04:31:37;13.10;99.90
22966;DHT22;11649;48.090;9.754;2023-05-23T04:34:04;13.00;99.90
22966;DHT22;11649;48.090;9.754;2023-05-23T04:36:31;13.70;99.90
22966;DHT22;11649;48.090;9.754;2023-05-23T04:38:57;13.40;99.90
22966;DHT22;11649;48.090;9.754;2023-05-23T04:41:24;12.80;99.90
22966;DHT22;11649;48.090;9.754;2023-05-23T04:43:51;13.60;99.90
22966;DHT22;11649;48.090;9.754;2023-05-23T04:46:20;13.50;99.90
22966;DHT22;11649;48.090;9.754;2023-05-23T04:48:53;13.50;99.90
22966;DHT22;11649;48.090;9.754;2023-05-23T04:51:21;13.60;99.90
22966;DHT22;11649;48.090;9.754;2023-05-23T04:53:48;15.10;99.90
22966;DHT22;11649;48.090;9.754;2023-05-23T04:56:16;13.70;99.90
22966;DHT22;11649;48.090;9.754;2023-05-23T04:58:49;14.50;99.90
22966;DHT22;11649;48.090;9.754;2023-05-23T05:01:16;12.50;99.90
22966;DHT22;11649;48.090;9.754;2023-05-23T05:03:43;14.70;99.90
22966;DHT22;11649;48.090;9.754;2023-05-23T05:06:10;13.70;99.90
22966;DHT22;11649;48.090;9.754;2023-05-23T05:08:36;15.90;99.90
22966;DHT22;11649;48.090;9.754;2023-05-23T05:11:03;14.60;99.90
22966;DHT22;11649;48.090;9.754;2023-05-23T05:13:30;13.80;99.90
22966;DHT22;11649;48.090;9.754;2023-05-23T05:15:57;13.90;99.90
22966;DHT22;11649;48.090;9.754;2023-05-23T05:18:27;15.60;99.90
22966;DHT22;11649;48.090;9.754;2023-05-23T05:20:54;14.10;99.90
22966;DHT22;11649;48.090;9.754;2023-05-23T05:23:24;14.20;99.90
22966;DHT22;11649;48.090;9.754;2023-05-23T05:25:51;14.10;99.90
22966;DHT22;11649;48.090;9.754;2023-05-23T05:28:18;14.50;99.90
22966;DHT22;11649;48.090;9.754;2023-05-23T05:30:44;14.50;99.90
22966;DHT22;11649;48.090;9.754;2023-05-23T05:33:12;15.10;99.90
22966;DHT22;11649;48.090;9.754;2023-05-23T05:35:39;15.30;99.90
22966;DHT22;11649;48.090;9.754;2023-05-23T05:38:06;14.90;99.90
22966;DHT22;11649;48.090;9.754;2023-05-23T05:40:33;14.80;99.90
22966;DHT22;11649;48.090;9.754;2023-05-23T05:43:00;15.80;99.90
22966;DHT22;11649;48.090;9.754;2023-05-23T05:45:27;14.90;99.90
22966;DHT22;11649;48.090;9.754;2023-05-23T05:47:54;15.00;99.90
22966;DHT22;11649;48.090;9.754;2023-05-23T05:50:21;14.90;99.90
22966;DHT22;11649;48.090;9.754;2023-05-23T05:52:48;15.00;99.90
22966;DHT22;11649;48.090;9.754;2023-05-23T05:55:14;15.10;99.90
22966;DHT22;11649;48.090;9.754;2023-05-23T05:57:41;15.20;99.90
22966;DHT22;11649;48.090;9.754;2023-05-23T06:00:10;15.60;99.90
22966;DHT22;11649;48.090;9.754;2023-05-23T06:02:40;15.40;99.90
22966;DHT22;11649;48.090;9.754;2023-05-23T06:05:09;15.40;99.90
22966;DHT22;11649;48.090;9.754;2023-05-23T06:07:38;15.50;99.90
22966;DHT22;11649;48.090;9.754;2023-05-23T06:10:06;15.90;99.90
22966;DHT22;11649;48.090;9.754;2023-05-23T06:12:33;15.60;99.90
22966;DHT22;11649;48.090;9.754;2023-05-23T06:15:00;16.00;99.90
22966;DHT22;11649;48.090;9.754;2023-05-23T06:17:27;15.90;99.90
22966;DHT22;11649;48.090;9.754;2023-05-23T06:19:54;15.90;99.90
22966;DHT22;11649;48.090;9.754;2023-05-23T06:22:21;16.10;99.90
22966;DHT22;11649;48.090;9.754;2023-05-23T06:24:48;17.00;99.90
22966;DHT22;11649;48.090;9.754;2023-05-23T06:27:16;16.80;99.90
22966;DHT22;11649;48.090;9.754;2023-05-23T06:29:43;17.20;99.90
22966;DHT22;11649;48.090;9.754;2023-05-23T06:32:10;16.30;99.90
22966;DHT22;11649;48.090;9.754;2023-05-23T06:34:37;17.90;99.90
22966;DHT22;11649;48.090;9.754;2023-05-23T06:37:03;17.20;99.90
22966;DHT22;11649;48.090;9.754;2023-05-23T06:39:30;16.50;99.90
22966;DHT22;11649;48.090;9.754;2023-05-23T06:41:57;17.10;99.90
22966;DHT22;11649;48.090;9.754;2023-05-23T06:44:24;16.80;99.90
22966;DHT22;11649;48.090;9.754;2023-05-23T06:46:51;17.30;99.90
22966;DHT22;11649;48.090;9.754;2023-05-23T06:49:23;16.90;99.90
22966;DHT22;11649;48.090;9.754;2023-05-23T06:51:50;16.80;99.90
22966;DHT22;11649;48.090;9.754;2023-05-23T06:54:18;16.70;99.90
22966;DHT22;11649;48.090;9.754;2023-05-23T06:56:45;16.30;99.90
22966;DHT22;11649;48.090;9.754;2023-05-23T06:59:12;16.60;99.90
22966;DHT22;11649;48.090;9.754;2023-05-23T07:01:39;16.50;99.90
22966;DHT22;11649;48.090;9.754;2023-05-23T07:04:06;16.60;99.90
22966;DHT22;11649;48.090;9.754;2023-05-23T07:06:34;16.60;99.90
22966;DHT22;11649;48.090;9.754;2023-05-23T07:09:02;16.70;99.90
22966;DHT22;11649;48.090;9.754;2023-05-23T07:11:29;16.80;99.90
22966;DHT22;11649;48.090;9.754;2023-05-23T07:13:57;16.70;99.90
22966;DHT22;11649;48.090;9.754;2023-05-23T07:16:24;16.90;99.90
22966;DHT22;11649;48.090;9.754;2023-05-23T07:18:54;16.90;99.90
22966;DHT22;11649;48.090;9.754;2023-05-23T07:21:21;16.90;99.90
22966;DHT22;11649;48.090;9.754;2023-05-23T07:23:48;16.90;99.90
22966;DHT22;11649;48.090;9.754;2023-05-23T07:26:15;16.90;99.90
22966;DHT22;11649;48.090;9.754;2023-05-23T07:28:41;17.00;99.90
22966;DHT22;11649;48.090;9.754;2023-05-23T07:31:08;17.30;99.90
22966;DHT22;11649;48.090;9.754;2023-05-23T07:33:35;17.10;99.90
22966;DHT22;11649;48.090;9.754;2023-05-23T07:36:02;17.30;99.90
22966;DHT22;11649;48.090;9.754;2023-05-23T07:38:29;17.20;99.90
22966;DHT22;11649;48.090;9.754;2023-05-23T07:40:56;17.70;99.90
22966;DHT22;11649;48.090;9.754;2023-05-23T07:43:36;17.80;99.90
22966;DHT22;11649;48.090;9.754;2023-05-23T07:46:03;17.40;99.90
22966;DHT22;11649;48.090;9.754;2023-05-23T07:48:30;17.40;99.90
22966;DHT22;11649;48.090;9.754;2023-05-23T07:50:57;17.50;99.90
22966;DHT22;11649;48.090;9.754;2023-05-23T07:53:24;17.40;99.90
22966;DHT22;11649;48.090;9.754;2023-05-23T07:55:51;17.90;99.90
22966;DHT22;11649;48.090;9.754;2023-05-23T07:58:18;17.60;99.90
22966;DHT22;11649;48.090;9.754;2023-05-23T08:00:45;17.70;99.90
22966;DHT22;11649;48.090;9.754;2023-05-23T08:03:12;17.80;99.90
22966;DHT22;11649;48.090;9.754;2023-05-23T08:05:39;18.00;99.90
22966;DHT22;11649;48.090;9.754;2023-05-23T08:08:06;18.10;99.90
22966;DHT22;11649;48.090;9.754;2023-05-23T08:10:33;18.20;99.90
22966;DHT22;11649;48.090;9.754;2023-05-23T08:13:00;18.20;99.90
22966;DHT22;11649;48.090;9.754;2023-05-23T08:15:30;18.30;99.90
22966;DHT22;11649;48.090;9.754;2023-05-23T08:17:56;18.50;99.90
22966;DHT22;11649;48.090;9.754;2023-05-23T08:20:24;18.60;99.90
22966;DHT22;11649;48.090;9.754;2023-05-23T08:23:00;18.70;99.90
22966;DHT22;11649;48.090;9.754;2023-05-23T08:25:28;18.40;99.90
22966;DHT22;11649;48.090;9.754;2023-05-23T08:27:58;18.40;99.90
22966;DHT22;11649;48.090;9.754;2023-05-23T08:30:27;18.40;99.90
22966;DHT22;11649;48.090;9.754;2023-05-23T08:32:55;18.40;99.90
22966;DHT22;11649;48.090;9.754;2023-05-23T08:35:22;18.10;99.90
22966;DHT22;11649;48.090;9.754;2023-05-23T08:37:49;18.40;99.90
22966;DHT22;11649;48.090;9.754;2023-05-23T08:40:20;18.30;99.90
22966;DHT22;11649;48.090;9.754;2023-05-23T08:42:49;17.80;99.90
22966;DHT22;11649;48.090;9.754;2023-05-23T08:45:16;17.70;99.90
22966;DHT22;11649;48.090;9.754;2023-05-23T08:47:44;17.70;99.90
22966;DHT22;11649;48.090;9.754;2023-05-23T08:50:14;17.60;99.90
22966;DHT22;11649;48.090;9.754;2023-05-23T08:52:49;17.90;99.90
22966;DHT22;11649;48.090;9.754;2023-05-23T08:55:18;18.10;99.90
22966;DHT22;11649;48.090;9.754;2023-05-23T08:57:45;18.20;99.90
22966;DHT22;11649;48.090;9.754;2023-05-23T09:00:13;18.30;99.90
22966;DHT22;11649;48.090;9.754;2023-05-23T09:02:44;18.50;99.90
22966;DHT22;11649;48.090;9.754;2023-05-23T09:05:12;18.60;99.90
22966;DHT22;11649;48.090;9.754;2023-05-23T09:07:40;18.60;99.90
22966;DHT22;11649;48.090;9.754;2023-05-23T09:10:08;18.60;99.90
22966;DHT22;11649;48.090;9.754;2023-05-23T09:12:36;18.70;99.90
22966;DHT22;11649;48.090;9.754;2023-05-23T09:15:05;18.80;99.90
22966;DHT22;11649;48.090;9.754;2023-05-23T09:17:32;18.90;99.90
22966;DHT22;11649;48.090;9.754;2023-05-23T09:20:13;18.80;99.90
22966;DHT22;11649;48.090;9.754;2023-05-23T09:22:40;18.60;99.90
22966;DHT22;11649;48.090;9.754;2023-05-23T09:25:11;18.40;99.90
22966;DHT22;11649;48.090;9.754;2023-05-23T09:27:38;18.30;99.90
22966;DHT22;11649;48.090;9.754;2023-05-23T09:30:06;18.30;99.90
22966;DHT22;11649;48.090;9.754;2023-05-23T09:32:33;18.40;99.90
22966;DHT22;11649;48.090;9.754;2023-05-23T09:35:05;18.30;99.90
22966;DHT22;11649;48.090;9.754;2023-05-23T09:37:37;18.40;99.90
22966;DHT22;11649;48.090;9.754;2023-05-23T09:40:06;18.60;99.90
22966;DHT22;11649;48.090;9.754;2023-05-23T09:42:44;18.70;99.90
22966;DHT22;11649;48.090;9.754;2023-05-23T09:45:16;18.70;99.90
22966;DHT22;11649;48.090;9.754;2023-05-23T09:47:50;18.70;99.90
22966;DHT22;11649;48.090;9.754;2023-05-23T09:50:18;18.90;99.90
22966;DHT22;11649;48.090;9.754;2023-05-23T09:52:45;19.00;99.90
22966;DHT22;11649;48.090;9.754;2023-05-23T09:55:12;19.10;99.90
22966;DHT22;11649;48.090;9.754;2023-05-23T09:57:41;19.20;99.90
22966;DHT22;11649;48.090;9.754;2023-05-23T10:00:09;19.40;99.90
22966;DHT22;11649;48.090;9.754;2023-05-23T10:05:45;19.70;99.90
22966;DHT22;11649;48.090;9.754;2023-05-23T10:08:26;19.70;99.90
22966;DHT22;11649;48.090;9.754;2023-05-23T10:13:27;19.70;99.90
22966;DHT22;11649;48.090;9.754;2023-05-23T10:15:59;19.60;99.90
22966;DHT22;11649;48.090;9.754;2023-05-23T10:18:36;19.60;99.90
22966;DHT22;11649;48.090;9.754;2023-05-23T10:21:09;19.60;99.90
22966;DHT22;11649;48.090;9.754;2023-05-23T10:23:37;19.80;99.90
22966;DHT22;11649;48.090;9.754;2023-05-23T10:26:05;19.70;99.90
22966;DHT22;11649;48.090;9.754;2023-05-23T10:28:32;19.50;99.90
22966;DHT22;11649;48.090;9.754;2023-05-23T10:31:00;19.70;99.90
22966;DHT22;11649;48.090;9.754;2023-05-23T10:33:34;19.90;99.90
22966;DHT22;11649;48.090;9.754;2023-05-23T10:36:24;19.90;99.90
22966;DHT22;11649;48.090;9.754;2023-05-23T10:39:03;20.10;99.90
22966;DHT22;11649;48.090;9.754;2023-05-23T10:44:12;19.90;99.90
22966;DHT22;11649;48.090;9.754;2023-05-23T10:46:51;19.90;99.90
22966;DHT22;11649;48.090;9.754;2023-05-23T10:52:08;20.10;99.90
22966;DHT22;11649;48.090;9.754;2023-05-23T10:54:41;20.20;99.90
22966;DHT22;11649;48.090;9.754;2023-05-23T10:57:10;20.40;99.90
22966;DHT22;11649;48.090;9.754;2023-05-23T10:59:38;20.50;99.90
22966;DHT22;11649;48.090;9.754;2023-05-23T11:02:15;20.30;99.90
22966;DHT22;11649;48.090;9.754;2023-05-23T11:04:42;20.10;99.90
22966;DHT22;11649;48.090;9.754;2023-05-23T11:07:28;19.80;99.90
22966;DHT22;11649;48.090;9.754;2023-05-23T11:10:10;19.70;99.90
22966;DHT22;11649;48.090;9.754;2023-05-23T11:12:42;19.50;99.90
22966;DHT22;11649;48.090;9.754;2023-05-23T11:15:18;19.50;99.90
22966;DHT22;11649;48.090;9.754;2023-05-23T11:20:18;19.90;99.90
22966;DHT22;11649;48.090;9.754;2023-05-23T11:22:53;20.00;99.90
22966;DHT22;11649;48.090;9.754;2023-05-23T11:25:39;20.00;99.90
22966;DHT22;11649;48.090;9.754;2023-05-23T11:28:07;20.10;99.90
22966;DHT22;11649;48.090;9.754;2023-05-23T11:30:35;19.80;99.90
22966;DHT22;11649;48.090;9.754;2023-05-23T11:33:10;20.00;99.90
22966;DHT22;11649;48.090;9.754;2023-05-23T11:35:40;20.20;99.90
22966;DHT22;11649;48.090;9.754;2023-05-23T11:38:17;20.40;99.90
22966;DHT22;11649;48.090;9.754;2023-05-23T11:40:45;20.60;99.90
22966;DHT22;11649;48.090;9.754;2023-05-23T11:43:14;20.40;99.90
22966;DHT22;11649;48.090;9.754;2023-05-23T11:45:42;20.40;99.90
22966;DHT22;11649;48.090;9.754;2023-05-23T11:48:10;20.40;99.90
22966;DHT22;11649;48.090;9.754;2023-05-23T11:50:46;20.60;99.90
22966;DHT22;11649;48.090;9.754;2023-05-23T11:53:14;20.70;99.90
22966;DHT22;11649;48.090;9.754;2023-05-23T11:55:57;20.70;99.90
22966;DHT22;11649;48.090;9.754;2023-05-23T11:58:33;20.60;99.90
22966;DHT22;11649;48.090;9.754;2023-05-23T12:01:05;20.60;99.90
22966;DHT22;11649;48.090;9.754;2023-05-23T12:03:52;20.80;99.90
22966;DHT22;11649;48.090;9.754;2023-05-23T12:06:24;21.00;99.90
22966;DHT22;11649;48.090;9.754;2023-05-23T12:08:51;21.00;99.90
22966;DHT22;11649;48.090;9.754;2023-05-23T12:11:18;21.00;99.90
22966;DHT22;11649;48.090;9.754;2023-05-23T12:13:45;20.90;99.90
22966;DHT22;11649;48.090;9.754;2023-05-23T12:16:15;20.90;99.90
22966;DHT22;11649;48.090;9.754;2023-05-23T12:18:42;20.70;99.90
22966;DHT22;11649;48.090;9.754;2023-05-23T12:21:09;20.70;99.90
22966;DHT22;11649;48.090;9.754;2023-05-23T12:23:36;20.90;99.90
22966;DHT22;11649;48.090;9.754;2023-05-23T12:26:05;21.20;99.90
22966;DHT22;11649;48.090;9.754;2023-05-23T12:28:37;21.50;99.90
22966;DHT22;11649;48.090;9.754;2023-05-23T12:31:19;21.30;99.90
22966;DHT22;11649;48.090;9.754;2023-05-23T12:33:47;21.30;99.90
22966;DHT22;11649;48.090;9.754;2023-05-23T12:36:24;21.40;99.90
22966;DHT22;11649;48.090;9.754;2023-05-23T12:38:52;21.60;99.90
22966;DHT22;11649;48.090;9.754;2023-05-23T12:41:19;21.50;99.90
22966;DHT22;11649;48.090;9.754;2023-05-23T12:43:52;21.60;99.90
22966;DHT22;11649;48.090;9.754;2023-05-23T12:46:20;21.40;99.90
22966;DHT22;11649;48.090;9.754;2023-05-23T12:48:47;21.30;99.90
22966;DHT22;11649;48.090;9.754;2023-05-23T12:51:14;21.10;99.90
22966;DHT22;11649;48.090;9.754;2023-05-23T12:53:42;21.10;99.90
22966;DHT22;11649;48.090;9.754;2023-05-23T12:56:08;21.10;99.90
22966;DHT22;11649;48.090;9.754;2023-05-23T12:58:35;21.30;99.90
22966;DHT22;11649;48.090;9.754;2023-05-23T13:01:02;21.30;99.90
22966;DHT22;11649;48.090;9.754;2023-05-23T13:03:30;21.30;99.90
22966;DHT22;11649;48.090;9.754;2023-05-23T13:05:57;21.70;99.00
22966;DHT22;11649;48.090;9.754;2023-05-23T13:08:25;21.90;99.00
22966;DHT22;11649;48.090;9.754;2023-05-23T13:10:55;21.80;99.90
22966;DHT22;11649;48.090;9.754;2023-05-23T13:13:23;21.90;98.30
22966;DHT22;11649;48.090;9.754;2023-05-23T13:15:50;22.00;98.70
22966;DHT22;11649;48.090;9.754;2023-05-23T13:18:17;22.70;95.00
22966;DHT22;11649;48.090;9.754;2023-05-23T13:20:46;22.50;94.10
22966;DHT22;11649;48.090;9.754;2023-05-23T13:23:13;22.10;94.70
22966;DHT22;11649;48.090;9.754;2023-05-23T13:25:40;22.20;94.80
22966;DHT22;11649;48.090;9.754;2023-05-23T13:28:07;21.80;95.00
22966;DHT22;11649;48.090;9.754;2023-05-23T13:30:34;21.90;95.10
22966;DHT22;11649;48.090;9.754;2023-05-23T13:33:01;22.00;95.00
22966;DHT22;11649;48.090;9.754;2023-05-23T13:35:28;21.80;95.00
22966;DHT22;11649;48.090;9.754;2023-05-23T13:37:55;21.60;96.20
22966;DHT22;11649;48.090;9.754;2023-05-23T13:40:22;21.30;95.50
22966;DHT22;11649;48.090;9.754;2023-05-23T13:42:49;21.10;98.70
22966;DHT22;11649;48.090;9.754;2023-05-23T13:45:17;22.10;93.20
22966;DHT22;11649;48.090;9.754;2023-05-23T13:47:45;23.60;91.40
22966;DHT22;11649;48.090;9.754;2023-05-23T13:50:12;24.70;90.50
22966;DHT22;11649;48.090;9.754;2023-05-23T13:52:39;25.20;78.10
22966;DHT22;11649;48.090;9.754;2023-05-23T13:55:10;24.60;74.80
22966;DHT22;11649;48.090;9.754;2023-05-23T13:57:37;23.20;82.80
22966;DHT22;11649;48.090;9.754;2023-05-23T14:00:04;22.30;87.20
22966;DHT22;11649;48.090;9.754;2023-05-23T14:02:31;21.80;93.60
22966;DHT22;11649;48.090;9.754;2023-05-23T14:04:58;21.70;95.00
22966;DHT22;11649;48.090;9.754;2023-05-23T14:07:34;22.50;94.40
22966;DHT22;11649;48.090;9.754;2023-05-23T14:10:01;23.70;87.20
22966;DHT22;11649;48.090;9.754;2023-05-23T14:12:28;24.30;80.80
22966;DHT22;11649;48.090;9.754;2023-05-23T14:14:54;23.30;78.90
22966;DHT22;11649;48.090;9.754;2023-05-23T14:17:22;23.10;88.60
22966;DHT22;11649;48.090;9.754;2023-05-23T14:19:49;24.40;83.10
22966;DHT22;11649;48.090;9.754;2023-05-23T14:22:16;25.30;74.90
22966;DHT22;11649;48.090;9.754;2023-05-23T14:24:43;25.50;72.60
22966;DHT22;11649;48.090;9.754;2023-05-23T14:27:10;25.40;71.40
22966;DHT22;11649;48.090;9.754;2023-05-23T14:29:37;25.10;73.40
22966;DHT22;11649;48.090;9.754;2023-05-23T14:32:04;25.30;71.90
22966;DHT22;11649;48.090;9.754;2023-05-23T14:34:31;25.30;69.20
22966;DHT22;11649;48.090;9.754;2023-05-23T14:36:59;24.90;74.10
22966;DHT22;11649;48.090;9.754;2023-05-23T14:39:26;24.90;72.90
22966;DHT22;11649;48.090;9.754;2023-05-23T14:41:54;25.70;72.10
22966;DHT22;11649;48.090;9.754;2023-05-23T14:44:21;26.50;69.80
22966;DHT22;11649;48.090;9.754;2023-05-23T14:46:47;26.10;65.00
22966;DHT22;11649;48.090;9.754;2023-05-23T14:49:16;24.90;67.40
22966;DHT22;11649;48.090;9.754;2023-05-23T14:51:43;23.90;74.70
22966;DHT22;11649;48.090;9.754;2023-05-23T14:54:17;22.80;78.60
22966;DHT22;11649;48.090;9.754;2023-05-23T14:56:44;21.60;81.80
22966;DHT22;11649;48.090;9.754;2023-05-23T14:59:11;21.20;89.00
22966;DHT22;11649;48.090;9.754;2023-05-23T15:01:38;21.00;92.50
22966;DHT22;11649;48.090;9.754;2023-05-23T15:04:07;21.10;93.60
22966;DHT22;11649;48.090;9.754;2023-05-23T15:06:36;21.50;93.60
22966;DHT22;11649;48.090;9.754;2023-05-23T15:09:03;21.90;91.10
22966;DHT22;11649;48.090;9.754;2023-05-23T15:11:30;22.40;86.00
22966;DHT22;11649;48.090;9.754;2023-05-23T15:14:07;23.00;83.00
22966;DHT22;11649;48.090;9.754;2023-05-23T15:16:34;22.90;80.60
22966;DHT22;11649;48.090;9.754;2023-05-23T15:19:03;22.30;80.30
22966;DHT22;11649;48.090;9.754;2023-05-23T15:21:31;21.80;81.80
22966;DHT22;11649;48.090;9.754;2023-05-23T15:23:58;21.30;87.40
22966;DHT22;11649;48.090;9.754;2023-05-23T15:26:25;20.90;91.00
22966;DHT22;11649;48.090;9.754;2023-05-23T15:28:53;20.70;92.30
22966;DHT22;11649;48.090;9.754;2023-05-23T15:31:20;20.50;93.20
22966;DHT22;11649;48.090;9.754;2023-05-23T15:33:46;20.10;93.10
22966;DHT22;11649;48.090;9.754;2023-05-23T15:36:13;19.80;93.90
22966;DHT22;11649;48.090;9.754;2023-05-23T15:38:40;19.70;96.70
22966;DHT22;11649;48.090;9.754;2023-05-23T15:41:07;20.70;96.80
22966;DHT22;11649;48.090;9.754;2023-05-23T15:43:34;21.70;91.30
22966;DHT22;11649;48.090;9.754;2023-05-23T15:46:01;22.10;86.60
22966;DHT22;11649;48.090;9.754;2023-05-23T15:48:28;22.80;86.00
22966;DHT22;11649;48.090;9.754;2023-05-23T15:50:55;22.80;80.90
22966;DHT22;11649;48.090;9.754;2023-05-23T15:53:22;23.00;79.70
22966;DHT22;11649;48.090;9.754;2023-05-23T15:55:48;23.00;77.60
22966;DHT22;11649;48.090;9.754;2023-05-23T15:58:15;23.00;73.40
22966;DHT22;11649;48.090;9.754;2023-05-23T16:00:42;22.90;75.60